sensor_id;sensor_type;location;lat;lon;timestamp;temperature;humidity
578;DHT22;275;48.492;9.214;2023-07-30T00:02:15;23.00;51.30
578;DHT22;275;48.492;9.214;2023-07-30T00:04:42;23.10;51.30
578;DHT22;275;48.492;9.214;2023-07-30T00:07:09;23.20;50.70
578;DHT22;275;48.492;9.214;2023-07-30T00:09:36;23.00;51.50
578;DHT22;275;48.492;9.214;2023-07-30T00:12:03;22.60;52.80
578;DHT22;275;48.492;9.214;2023-07-30T00:14:32;22.70;52.70
578;DHT22;275;48.492;9.214;2023-07-30T00:16:59;22.90;52.30
578;DHT22;275;48.492;9.214;2023-07-30T00:19:26;22.80;52.50
578;DHT22;275;48.492;9.214;2023-07-30T00:21:53;23.00;51.70
578;DHT22;275;48.492;9.214;2023-07-30T00:24:19;23.20;51.00
578;DHT22;275;48.492;9.214;2023-07-30T00:26:46;23.00;50.90
578;DHT22;275;48.492;9.214;2023-07-30T00:29:13;23.20;50.00
578;DHT22;275;48.492;9.214;2023-07-30T00:31:41;23.40;49.30
578;DHT22;275;48.492;9.214;2023-07-30T00:34:08;23.50;49.30
578;DHT22;275;48.492;9.214;2023-07-30T00:36:35;23.50;48.70
578;DHT22;275;48.492;9.214;2023-07-30T00:39:02;23.60;48.80
578;DHT22;275;48.492;9.214;2023-07-30T00:41:29;23.40;49.40
578;DHT22;275;48.492;9.214;2023-07-30T00:43:56;23.20;48.90
578;DHT22;275;48.492;9.214;2023-07-30T00:46:22;23.10;49.10
578;DHT22;275;48.492;9.214;2023-07-30T00:48:51;23.00;49.10
578;DHT22;275;48.492;9.214;2023-07-30T00:51:19;23.10;48.50
578;DHT22;275;48.492;9.214;2023-07-30T00:53:46;23.30;48.10
578;DHT22;275;48.492;9.214;2023-07-30T00:56:14;23.30;48.20
578;DHT22;275;48.492;9.214;2023-07-30T00:58:42;22.80;49.20
578;DHT22;275;48.492;9.214;2023-07-30T01:01:11;22.70;49.90
578;DHT22;275;48.492;9.214;2023-07-30T01:03:38;22.70;49.30
578;DHT22;275;48.492;9.214;2023-07-30T01:06:07;22.40;50.20
578;DHT22;275;48.492;9.214;2023-07-30T01:08:34;22.20;50.40
578;DHT22;275;48.492;9.214;2023-07-30T01:11:01;22.30;50.30
578;DHT22;275;48.492;9.214;2023-07-30T01:13:29;22.40;50.30
578;DHT22;275;48.492;9.214;2023-07-30T01:15:56;22.40;49.40
578;DHT22;275;48.492;9.214;2023-07-30T01:18:23;22.30;50.10
578;DHT22;275;48.492;9.214;2023-07-30T01:20:57;22.10;50.70
578;DHT22;275;48.492;9.214;2023-07-30T01:23:24;21.90;51.30
578;DHT22;275;48.492;9.214;2023-07-30T01:25:58;22.00;51.10
578;DHT22;275;48.492;9.214;2023-07-30T01:28:26;22.20;49.60
578;DHT22;275;48.492;9.214;2023-07-30T01:30:54;22.20;49.80
578;DHT22;275;48.492;9.214;2023-07-30T01:33:22;22.30;49.20
578;DHT22;275;48.492;9.214;2023-07-30T01:35:49;22.70;48.10
578;DHT22;275;48.492;9.214;2023-07-30T01:38:18;22.70;47.80
578;DHT22;275;48.492;9.214;2023-07-30T01:40:44;22.80;47.50
578;DHT22;275;48.492;9.214;2023-07-30T01:43:12;22.90;46.90
578;DHT22;275;48.492;9.214;2023-07-30T01:45:39;23.00;46.50
578;DHT22;275;48.492;9.214;2023-07-30T01:48:06;23.10;46.30
578;DHT22;275;48.492;9.214;2023-07-30T01:50:33;23.10;46.30
578;DHT22;275;48.492;9.214;2023-07-30T01:53:00;23.10;45.80
578;DHT22;275;48.492;9.214;2023-07-30T01:55:28;22.70;47.00
578;DHT22;275;48.492;9.214;2023-07-30T01:57:55;22.50;47.40
578;DHT22;275;48.492;9.214;2023-07-30T02:00:21;22.40;47.90
578;DHT22;275;48.492;9.214;2023-07-30T02:02:48;22.40;47.90
578;DHT22;275;48.492;9.214;2023-07-30T02:05:15;22.30;47.90
578;DHT22;275;48.492;9.214;2023-07-30T02:07:42;22.40;47.60
578;DHT22;275;48.492;9.214;2023-07-30T02:10:09;22.20;48.20
578;DHT22;275;48.492;9.214;2023-07-30T02:12:37;22.30;48.20
578;DHT22;275;48.492;9.214;2023-07-30T02:15:05;22.40;47.80
578;DHT22;275;48.492;9.214;2023-07-30T02:17:32;22.60;47.00
578;DHT22;275;48.492;9.214;2023-07-30T02:19:59;22.60;46.70
578;DHT22;275;48.492;9.214;2023-07-30T02:22:26;22.60;46.90
578;DHT22;275;48.492;9.214;2023-07-30T02:24:53;22.60;46.70
578;DHT22;275;48.492;9.214;2023-07-30T02:27:22;22.80;46.30
578;DHT22;275;48.492;9.214;2023-07-30T02:29:50;22.90;45.90
578;DHT22;275;48.492;9.214;2023-07-30T02:32:17;22.70;46.20
578;DHT22;275;48.492;9.214;2023-07-30T02:34:44;22.40;47.20
578;DHT22;275;48.492;9.214;2023-07-30T02:37:11;22.30;47.20
578;DHT22;275;48.492;9.214;2023-07-30T02:39:38;21.90;48.50
578;DHT22;275;48.492;9.214;2023-07-30T02:42:06;21.40;50.70
578;DHT22;275;48.492;9.214;2023-07-30T02:44:33;21.20;51.40
578;DHT22;275;48.492;9.214;2023-07-30T02:47:01;21.30;51.00
578;DHT22;275;48.492;9.214;2023-07-30T02:49:28;21.70;50.00
578;DHT22;275;48.492;9.214;2023-07-30T02:51:55;21.80;49.50
578;DHT22;275;48.492;9.214;2023-07-30T02:54:22;22.00;48.90
578;DHT22;275;48.492;9.214;2023-07-30T02:56:49;21.80;49.20
578;DHT22;275;48.492;9.214;2023-07-30T02:59:15;21.80;48.90
578;DHT22;275;48.492;9.214;2023-07-30T03:01:42;21.60;49.10
578;DHT22;275;48.492;9.214;2023-07-30T03:04:11;21.40;50.50
578;DHT22;275;48.492;9.214;2023-07-30T03:06:38;21.50;50.30
578;DHT22;275;48.492;9.214;2023-07-30T03:09:04;21.60;50.20
578;DHT22;275;48.492;9.214;2023-07-30T03:11:31;21.70;49.40
578;DHT22;275;48.492;9.214;2023-07-30T03:13:58;21.90;48.90
578;DHT22;275;48.492;9.214;2023-07-30T03:16:25;22.10;47.80
578;DHT22;275;48.492;9.214;2023-07-30T03:18:52;22.10;47.40
578;DHT22;275;48.492;9.214;2023-07-30T03:21:20;22.20;47.20
578;DHT22;275;48.492;9.214;2023-07-30T03:23:47;22.20;47.70
578;DHT22;275;48.492;9.214;2023-07-30T03:26:14;21.80;48.80
578;DHT22;275;48.492;9.214;2023-07-30T03:28:41;21.60;49.70
578;DHT22;275;48.492;9.214;2023-07-30T03:31:08;21.70;49.60
578;DHT22;275;48.492;9.214;2023-07-30T03:33:34;21.90;48.70
578;DHT22;275;48.492;9.214;2023-07-30T03:36:01;22.20;47.70
578;DHT22;275;48.492;9.214;2023-07-30T03:38:29;22.30;47.60
578;DHT22;275;48.492;9.214;2023-07-30T03:40:56;22.20;47.70
578;DHT22;275;48.492;9.214;2023-07-30T03:43:23;22.30;47.50
578;DHT22;275;48.492;9.214;2023-07-30T03:45:50;22.30;47.70
578;DHT22;275;48.492;9.214;2023-07-30T03:48:17;22.50;47.10
578;DHT22;275;48.492;9.214;2023-07-30T03:50:43;22.60;46.60
578;DHT22;275;48.492;9.214;2023-07-30T03:53:10;22.40;47.00
578;DHT22;275;48.492;9.214;2023-07-30T03:55:38;22.60;46.60
578;DHT22;275;48.492;9.214;2023-07-30T03:58:05;22.60;46.60
578;DHT22;275;48.492;9.214;2023-07-30T04:00:33;22.60;46.60
578;DHT22;275;48.492;9.214;2023-07-30T04:02:59;22.60;46.30
578;DHT22;275;48.492;9.214;2023-07-30T04:05:26;22.80;45.50
578;DHT22;275;48.492;9.214;2023-07-30T04:07:53;22.80;45.30
578;DHT22;275;48.492;9.214;2023-07-30T04:10:20;22.90;44.60
578;DHT22;275;48.492;9.214;2023-07-30T04:12:48;22.90;45.30
578;DHT22;275;48.492;9.214;2023-07-30T04:15:15;23.00;45.10
578;DHT22;275;48.492;9.214;2023-07-30T04:17:42;23.10;44.00
578;DHT22;275;48.492;9.214;2023-07-30T04:20:10;23.00;44.00
578;DHT22;275;48.492;9.214;2023-07-30T04:22:36;23.00;44.10
578;DHT22;275;48.492;9.214;2023-07-30T04:25:04;23.00;44.50
578;DHT22;275;48.492;9.214;2023-07-30T04:27:32;23.00;44.40
578;DHT22;275;48.492;9.214;2023-07-30T04:30:01;22.90;44.70
578;DHT22;275;48.492;9.214;2023-07-30T04:32:28;22.90;44.80
578;DHT22;275;48.492;9.214;2023-07-30T04:34:55;23.20;44.10
578;DHT22;275;48.492;9.214;2023-07-30T04:37:21;23.30;43.70
578;DHT22;275;48.492;9.214;2023-07-30T04:39:49;23.30;43.40
578;DHT22;275;48.492;9.214;2023-07-30T04:42:16;23.50;42.90
578;DHT22;275;48.492;9.214;2023-07-30T04:44:44;23.50;42.80
578;DHT22;275;48.492;9.214;2023-07-30T04:47:12;23.50;42.60
578;DHT22;275;48.492;9.214;2023-07-30T04:49:39;23.30;43.00
578;DHT22;275;48.492;9.214;2023-07-30T04:52:06;23.30;43.20
578;DHT22;275;48.492;9.214;2023-07-30T04:54:33;23.40;43.00
578;DHT22;275;48.492;9.214;2023-07-30T04:57:01;23.20;43.40
578;DHT22;275;48.492;9.214;2023-07-30T04:59:28;23.30;43.50
578;DHT22;275;48.492;9.214;2023-07-30T05:01:55;23.20;43.70
578;DHT22;275;48.492;9.214;2023-07-30T05:04:23;23.10;44.10
578;DHT22;275;48.492;9.214;2023-07-30T05:06:50;23.20;43.90
578;DHT22;275;48.492;9.214;2023-07-30T05:09:17;23.40;43.40
578;DHT22;275;48.492;9.214;2023-07-30T05:11:44;23.50;43.30
578;DHT22;275;48.492;9.214;2023-07-30T05:14:11;23.40;44.40
578;DHT22;275;48.492;9.214;2023-07-30T05:16:37;23.40;44.80
578;DHT22;275;48.492;9.214;2023-07-30T05:19:04;23.60;44.00
578;DHT22;275;48.492;9.214;2023-07-30T05:21:32;23.30;44.50
578;DHT22;275;48.492;9.214;2023-07-30T05:23:59;23.40;44.20
578;DHT22;275;48.492;9.214;2023-07-30T05:26:26;23.60;41.80
578;DHT22;275;48.492;9.214;2023-07-30T05:28:53;23.00;43.40
578;DHT22;275;48.492;9.214;2023-07-30T05:31:19;22.90;44.30
578;DHT22;275;48.492;9.214;2023-07-30T05:33:46;23.00;44.10
578;DHT22;275;48.492;9.214;2023-07-30T05:36:13;23.10;43.80
578;DHT22;275;48.492;9.214;2023-07-30T05:38:41;23.00;43.70
578;DHT22;275;48.492;9.214;2023-07-30T05:41:08;23.10;43.80
578;DHT22;275;48.492;9.214;2023-07-30T05:43:35;23.00;43.80
578;DHT22;275;48.492;9.214;2023-07-30T05:46:01;22.90;44.10
578;DHT22;275;48.492;9.214;2023-07-30T05:48:28;23.10;43.70
578;DHT22;275;48.492;9.214;2023-07-30T05:50:55;23.10;43.40
578;DHT22;275;48.492;9.214;2023-07-30T05:53:22;22.70;45.00
578;DHT22;275;48.492;9.214;2023-07-30T05:55:50;23.20;44.00
578;DHT22;275;48.492;9.214;2023-07-30T05:58:17;23.70;43.30
578;DHT22;275;48.492;9.214;2023-07-30T06:00:44;24.30;41.80
578;DHT22;275;48.492;9.214;2023-07-30T06:03:11;24.20;40.90
578;DHT22;275;48.492;9.214;2023-07-30T06:05:41;23.90;42.10
578;DHT22;275;48.492;9.214;2023-07-30T06:08:09;23.90;42.90
578;DHT22;275;48.492;9.214;2023-07-30T06:10:35;24.20;42.40
578;DHT22;275;48.492;9.214;2023-07-30T06:13:04;23.90;43.20
578;DHT22;275;48.492;9.214;2023-07-30T06:15:31;23.50;43.80
578;DHT22;275;48.492;9.214;2023-07-30T06:18:00;23.50;44.50
578;DHT22;275;48.492;9.214;2023-07-30T06:20:27;23.40;44.60
578;DHT22;275;48.492;9.214;2023-07-30T06:22:54;23.00;45.90
578;DHT22;275;48.492;9.214;2023-07-30T06:25:21;23.20;46.70
578;DHT22;275;48.492;9.214;2023-07-30T06:27:48;23.40;47.30
578;DHT22;275;48.492;9.214;2023-07-30T06:30:16;23.30;46.30
578;DHT22;275;48.492;9.214;2023-07-30T06:32:43;23.40;46.60
578;DHT22;275;48.492;9.214;2023-07-30T06:35:10;23.30;47.20
578;DHT22;275;48.492;9.214;2023-07-30T06:37:37;23.10;48.40
578;DHT22;275;48.492;9.214;2023-07-30T06:40:05;23.30;47.60
578;DHT22;275;48.492;9.214;2023-07-30T06:42:32;23.10;47.10
578;DHT22;275;48.492;9.214;2023-07-30T06:44:59;22.80;48.00
578;DHT22;275;48.492;9.214;2023-07-30T06:47:27;22.90;47.80
578;DHT22;275;48.492;9.214;2023-07-30T06:49:54;23.00;47.70
578;DHT22;275;48.492;9.214;2023-07-30T06:52:20;23.20;46.80
578;DHT22;275;48.492;9.214;2023-07-30T06:54:47;23.10;46.70
578;DHT22;275;48.492;9.214;2023-07-30T06:57:14;23.00;47.40
578;DHT22;275;48.492;9.214;2023-07-30T06:59:41;22.80;47.70
578;DHT22;275;48.492;9.214;2023-07-30T07:02:08;22.30;48.30
578;DHT22;275;48.492;9.214;2023-07-30T07:04:36;22.60;48.00
578;DHT22;275;48.492;9.214;2023-07-30T07:07:03;23.10;46.30
578;DHT22;275;48.492;9.214;2023-07-30T07:09:30;23.00;47.10
578;DHT22;275;48.492;9.214;2023-07-30T07:11:58;23.80;45.40
578;DHT22;275;48.492;9.214;2023-07-30T07:14:25;24.00;43.60
578;DHT22;275;48.492;9.214;2023-07-30T07:16:53;24.30;41.70
578;DHT22;275;48.492;9.214;2023-07-30T07:19:20;24.20;42.10
578;DHT22;275;48.492;9.214;2023-07-30T07:21:48;24.00;41.60
578;DHT22;275;48.492;9.214;2023-07-30T07:24:16;23.80;42.30
578;DHT22;275;48.492;9.214;2023-07-30T07:26:42;24.10;41.30
578;DHT22;275;48.492;9.214;2023-07-30T07:29:10;23.50;43.10
578;DHT22;275;48.492;9.214;2023-07-30T07:31:37;23.20;43.90
578;DHT22;275;48.492;9.214;2023-07-30T07:34:04;23.80;43.10
578;DHT22;275;48.492;9.214;2023-07-30T07:36:31;24.50;41.20
578;DHT22;275;48.492;9.214;2023-07-30T07:38:59;25.30;39.90
578;DHT22;275;48.492;9.214;2023-07-30T07:41:26;26.20;37.50
578;DHT22;275;48.492;9.214;2023-07-30T07:43:53;25.40;38.90
578;DHT22;275;48.492;9.214;2023-07-30T07:46:21;24.80;40.40
578;DHT22;275;48.492;9.214;2023-07-30T07:48:48;24.40;42.30
578;DHT22;275;48.492;9.214;2023-07-30T07:51:14;24.10;43.60
578;DHT22;275;48.492;9.214;2023-07-30T07:53:41;23.40;48.60
578;DHT22;275;48.492;9.214;2023-07-30T07:56:09;22.70;50.50
578;DHT22;275;48.492;9.214;2023-07-30T07:58:36;22.40;52.60
578;DHT22;275;48.492;9.214;2023-07-30T08:01:03;22.40;52.60
578;DHT22;275;48.492;9.214;2023-07-30T08:03:30;22.20;55.10
578;DHT22;275;48.492;9.214;2023-07-30T08:05:56;21.00;55.70
578;DHT22;275;48.492;9.214;2023-07-30T08:08:25;21.20;55.70
578;DHT22;275;48.492;9.214;2023-07-30T08:10:52;21.90;53.50
578;DHT22;275;48.492;9.214;2023-07-30T08:13:20;22.10;53.50
578;DHT22;275;48.492;9.214;2023-07-30T08:15:47;22.30;52.20
578;DHT22;275;48.492;9.214;2023-07-30T08:18:14;22.00;52.60
578;DHT22;275;48.492;9.214;2023-07-30T08:20:41;22.20;53.50
578;DHT22;275;48.492;9.214;2023-07-30T08:23:07;24.00;48.90
578;DHT22;275;48.492;9.214;2023-07-30T08:25:34;26.40;42.80
578;DHT22;275;48.492;9.214;2023-07-30T08:28:01;27.10;38.40
578;DHT22;275;48.492;9.214;2023-07-30T08:30:29;27.10;39.80
578;DHT22;275;48.492;9.214;2023-07-30T08:32:57;28.80;34.50
578;DHT22;275;48.492;9.214;2023-07-30T08:35:24;28.90;33.80
578;DHT22;275;48.492;9.214;2023-07-30T08:37:52;27.90;35.40
578;DHT22;275;48.492;9.214;2023-07-30T08:40:21;27.10;36.70
578;DHT22;275;48.492;9.214;2023-07-30T08:42:49;26.70;38.00
578;DHT22;275;48.492;9.214;2023-07-30T08:45:16;26.70;37.70
578;DHT22;275;48.492;9.214;2023-07-30T08:47:47;25.40;40.30
578;DHT22;275;48.492;9.214;2023-07-30T08:50:14;24.80;41.50
578;DHT22;275;48.492;9.214;2023-07-30T08:52:41;25.30;41.30
578;DHT22;275;48.492;9.214;2023-07-30T08:55:10;26.40;38.20
578;DHT22;275;48.492;9.214;2023-07-30T08:57:38;27.70;35.50
578;DHT22;275;48.492;9.214;2023-07-30T09:00:08;28.70;32.10
578;DHT22;275;48.492;9.214;2023-07-30T09:02:39;27.90;33.30
578;DHT22;275;48.492;9.214;2023-07-30T09:05:10;28.30;32.80
578;DHT22;275;48.492;9.214;2023-07-30T09:07:37;27.50;34.50
578;DHT22;275;48.492;9.214;2023-07-30T09:10:04;26.90;35.30
578;DHT22;275;48.492;9.214;2023-07-30T09:12:32;25.90;37.70
578;DHT22;275;48.492;9.214;2023-07-30T09:14:59;26.40;37.10
578;DHT22;275;48.492;9.214;2023-07-30T09:17:26;26.60;36.20
578;DHT22;275;48.492;9.214;2023-07-30T09:19:53;27.00;34.80
578;DHT22;275;48.492;9.214;2023-07-30T09:22:24;26.90;35.00
578;DHT22;275;48.492;9.214;2023-07-30T09:24:52;26.30;35.80
578;DHT22;275;48.492;9.214;2023-07-30T09:27:20;25.80;36.90
578;DHT22;275;48.492;9.214;2023-07-30T09:29:51;24.40;41.00
578;DHT22;275;48.492;9.214;2023-07-30T09:32:19;23.80;43.40
578;DHT22;275;48.492;9.214;2023-07-30T09:34:46;23.50;46.10
578;DHT22;275;48.492;9.214;2023-07-30T09:37:13;23.30;47.40
578;DHT22;275;48.492;9.214;2023-07-30T09:39:43;22.50;48.00
578;DHT22;275;48.492;9.214;2023-07-30T09:42:10;22.30;48.10
578;DHT22;275;48.492;9.214;2023-07-30T09:44:37;22.40;49.00
578;DHT22;275;48.492;9.214;2023-07-30T09:47:08;22.50;46.30
578;DHT22;275;48.492;9.214;2023-07-30T09:49:36;22.90;44.90
578;DHT22;275;48.492;9.214;2023-07-30T09:52:03;22.70;44.80
578;DHT22;275;48.492;9.214;2023-07-30T09:54:31;22.50;45.40
578;DHT22;275;48.492;9.214;2023-07-30T09:56:59;22.70;45.30
578;DHT22;275;48.492;9.214;2023-07-30T09:59:26;23.10;43.10
578;DHT22;275;48.492;9.214;2023-07-30T10:01:53;23.20;41.20
578;DHT22;275;48.492;9.214;2023-07-30T10:04:22;22.90;40.70
578;DHT22;275;48.492;9.214;2023-07-30T10:06:52;22.90;39.90
578;DHT22;275;48.492;9.214;2023-07-30T10:09:21;23.00;38.40
578;DHT22;275;48.492;9.214;2023-07-30T10:11:52;22.80;38.90
578;DHT22;275;48.492;9.214;2023-07-30T10:14:22;23.20;39.20
578;DHT22;275;48.492;9.214;2023-07-30T10:16:52;23.10;39.00
578;DHT22;275;48.492;9.214;2023-07-30T10:19:22;23.20;39.20
578;DHT22;275;48.492;9.214;2023-07-30T10:21:49;23.20;39.10
578;DHT22;275;48.492;9.214;2023-07-30T10:24:16;23.10;39.60
578;DHT22;275;48.492;9.214;2023-07-30T10:26:43;22.30;40.80
578;DHT22;275;48.492;9.214;2023-07-30T10:29:11;22.40;41.10
578;DHT22;275;48.492;9.214;2023-07-30T10:31:43;22.20;42.40
578;DHT22;275;48.492;9.214;2023-07-30T10:34:10;22.70;40.40
578;DHT22;275;48.492;9.214;2023-07-30T10:36:42;22.70;40.30
578;DHT22;275;48.492;9.214;2023-07-30T10:39:15;22.70;40.30
578;DHT22;275;48.492;9.214;2023-07-30T10:41:43;22.40;41.90
578;DHT22;275;48.492;9.214;2023-07-30T10:44:23;22.70;41.00
578;DHT22;275;48.492;9.214;2023-07-30T10:46:52;22.10;41.80
578;DHT22;275;48.492;9.214;2023-07-30T10:49:20;22.40;41.30
578;DHT22;275;48.492;9.214;2023-07-30T10:51:47;21.70;41.60
578;DHT22;275;48.492;9.214;2023-07-30T10:54:14;21.90;42.50
578;DHT22;275;48.492;9.214;2023-07-30T10:56:42;22.20;40.90
578;DHT22;275;48.492;9.214;2023-07-30T10:59:10;23.20;38.60
578;DHT22;275;48.492;9.214;2023-07-30T11:01:38;23.50;37.20
578;DHT22;275;48.492;9.214;2023-07-30T11:04:09;24.50;35.50
578;DHT22;275;48.492;9.214;2023-07-30T11:06:36;24.60;34.10
578;DHT22;275;48.492;9.214;2023-07-30T11:09:03;24.80;33.80
578;DHT22;275;48.492;9.214;2023-07-30T11:11:31;25.20;31.50
578;DHT22;275;48.492;9.214;2023-07-30T11:14:00;24.90;32.80
578;DHT22;275;48.492;9.214;2023-07-30T11:16:29;27.40;28.90
578;DHT22;275;48.492;9.214;2023-07-30T11:18:56;28.30;27.00
578;DHT22;275;48.492;9.214;2023-07-30T11:21:24;28.90;25.90
578;DHT22;275;48.492;9.214;2023-07-30T11:23:52;30.50;24.20
578;DHT22;275;48.492;9.214;2023-07-30T11:26:20;29.90;24.30
578;DHT22;275;48.492;9.214;2023-07-30T11:28:47;30.60;23.50
578;DHT22;275;48.492;9.214;2023-07-30T11:31:15;32.60;21.80
578;DHT22;275;48.492;9.214;2023-07-30T11:33:44;35.40;18.60
578;DHT22;275;48.492;9.214;2023-07-30T11:36:14;38.10;15.90
578;DHT22;275;48.492;9.214;2023-07-30T11:38:43;37.30;14.60
578;DHT22;275;48.492;9.214;2023-07-30T11:41:10;36.10;15.70
578;DHT22;275;48.492;9.214;2023-07-30T11:43:38;32.90;17.80
578;DHT22;275;48.492;9.214;2023-07-30T11:46:13;30.00;22.10
578;DHT22;275;48.492;9.214;2023-07-30T11:48:41;29.40;23.10
578;DHT22;275;48.492;9.214;2023-07-30T11:51:19;28.90;23.50
578;DHT22;275;48.492;9.214;2023-07-30T11:53:49;27.70;24.70
578;DHT22;275;48.492;9.214;2023-07-30T11:56:21;27.00;25.10
578;DHT22;275;48.492;9.214;2023-07-30T11:58:49;27.90;24.40
578;DHT22;275;48.492;9.214;2023-07-30T12:01:17;30.60;20.30
578;DHT22;275;48.492;9.214;2023-07-30T12:03:44;32.10;18.20
578;DHT22;275;48.492;9.214;2023-07-30T12:06:12;32.00;18.20
578;DHT22;275;48.492;9.214;2023-07-30T12:08:39;30.70;19.30
578;DHT22;275;48.492;9.214;2023-07-30T12:11:08;30.40;19.80
578;DHT22;275;48.492;9.214;2023-07-30T12:13:43;28.30;21.80
578;DHT22;275;48.492;9.214;2023-07-30T12:16:11;26.30;25.00
578;DHT22;275;48.492;9.214;2023-07-30T12:18:38;27.00;24.40
578;DHT22;275;48.492;9.214;2023-07-30T12:21:05;30.60;20.40
578;DHT22;275;48.492;9.214;2023-07-30T12:23:33;33.10;17.10
578;DHT22;275;48.492;9.214;2023-07-30T12:26:00;34.90;15.10
578;DHT22;275;48.492;9.214;2023-07-30T12:28:33;35.20;13.40
578;DHT22;275;48.492;9.214;2023-07-30T12:31:00;35.00;14.10
578;DHT22;275;48.492;9.214;2023-07-30T12:33:27;35.60;13.20
578;DHT22;275;48.492;9.214;2023-07-30T12:35:54;34.10;14.00
578;DHT22;275;48.492;9.214;2023-07-30T12:38:21;33.70;15.20
578;DHT22;275;48.492;9.214;2023-07-30T12:40:47;32.20;16.10
578;DHT22;275;48.492;9.214;2023-07-30T12:43:14;31.50;16.50
578;DHT22;275;48.492;9.214;2023-07-30T12:45:43;30.40;18.40
578;DHT22;275;48.492;9.214;2023-07-30T12:48:09;30.40;18.30
578;DHT22;275;48.492;9.214;2023-07-30T12:50:36;30.00;18.40
578;DHT22;275;48.492;9.214;2023-07-30T12:53:04;31.30;17.80
578;DHT22;275;48.492;9.214;2023-07-30T12:55:31;30.20;18.70
578;DHT22;275;48.492;9.214;2023-07-30T12:57:58;28.40;20.80
578;DHT22;275;48.492;9.214;2023-07-30T13:00:25;27.10;23.20
578;DHT22;275;48.492;9.214;2023-07-30T13:02:53;28.00;22.00
578;DHT22;275;48.492;9.214;2023-07-30T13:05:22;28.40;21.80
578;DHT22;275;48.492;9.214;2023-07-30T13:07:49;28.20;21.50
578;DHT22;275;48.492;9.214;2023-07-30T13:10:16;28.20;21.60
578;DHT22;275;48.492;9.214;2023-07-30T13:12:43;27.70;22.70
578;DHT22;275;48.492;9.214;2023-07-30T13:15:10;27.30;23.30
578;DHT22;275;48.492;9.214;2023-07-30T13:17:37;26.50;24.30
578;DHT22;275;48.492;9.214;2023-07-30T13:20:06;27.10;23.10
578;DHT22;275;48.492;9.214;2023-07-30T13:22:33;27.50;22.70
578;DHT22;275;48.492;9.214;2023-07-30T13:25:00;27.60;22.20
578;DHT22;275;48.492;9.214;2023-07-30T13:27:27;26.90;23.30
578;DHT22;275;48.492;9.214;2023-07-30T13:29:54;26.90;23.80
578;DHT22;275;48.492;9.214;2023-07-30T13:32:20;26.10;25.10
578;DHT22;275;48.492;9.214;2023-07-30T13:34:47;25.70;26.30
578;DHT22;275;48.492;9.214;2023-07-30T13:37:15;26.00;25.40
578;DHT22;275;48.492;9.214;2023-07-30T13:39:42;25.80;26.00
578;DHT22;275;48.492;9.214;2023-07-30T13:42:09;25.30;26.70
578;DHT22;275;48.492;9.214;2023-07-30T13:44:36;25.10;27.20
578;DHT22;275;48.492;9.214;2023-07-30T13:47:03;25.20;27.50
578;DHT22;275;48.492;9.214;2023-07-30T13:49:30;26.10;25.90
578;DHT22;275;48.492;9.214;2023-07-30T13:51:57;26.00;26.10
578;DHT22;275;48.492;9.214;2023-07-30T13:54:25;25.80;26.60
578;DHT22;275;48.492;9.214;2023-07-30T13:56:51;25.70;26.80
578;DHT22;275;48.492;9.214;2023-07-30T13:59:20;25.90;26.50
578;DHT22;275;48.492;9.214;2023-07-30T14:01:47;25.80;26.80
578;DHT22;275;48.492;9.214;2023-07-30T14:04:13;25.80;26.90
578;DHT22;275;48.492;9.214;2023-07-30T14:06:40;26.20;26.40
578;DHT22;275;48.492;9.214;2023-07-30T14:09:07;26.70;25.80
578;DHT22;275;48.492;9.214;2023-07-30T14:11:35;27.10;25.20
578;DHT22;275;48.492;9.214;2023-07-30T14:14:03;27.60;24.70
578;DHT22;275;48.492;9.214;2023-07-30T14:16:31;26.80;25.40
578;DHT22;275;48.492;9.214;2023-07-30T14:18:58;26.60;25.60
578;DHT22;275;48.492;9.214;2023-07-30T14:21:25;26.70;25.60
578;DHT22;275;48.492;9.214;2023-07-30T14:23:51;26.60;25.30
578;DHT22;275;48.492;9.214;2023-07-30T14:26:18;26.60;25.40
578;DHT22;275;48.492;9.214;2023-07-30T14:28:46;26.40;25.20
578;DHT22;275;48.492;9.214;2023-07-30T14:31:13;25.90;25.70
578;DHT22;275;48.492;9.214;2023-07-30T14:33:41;25.00;27.60
578;DHT22;275;48.492;9.214;2023-07-30T14:36:07;25.10;27.70
578;DHT22;275;48.492;9.214;2023-07-30T14:38:36;25.60;27.00
578;DHT22;275;48.492;9.214;2023-07-30T14:41:04;26.00;26.50
578;DHT22;275;48.492;9.214;2023-07-30T14:43:31;26.90;25.00
578;DHT22;275;48.492;9.214;2023-07-30T14:45:59;27.50;24.20
578;DHT22;275;48.492;9.214;2023-07-30T14:48:26;27.30;24.20
578;DHT22;275;48.492;9.214;2023-07-30T14:50:54;26.80;24.60
578;DHT22;275;48.492;9.214;2023-07-30T14:53:21;26.50;25.20
578;DHT22;275;48.492;9.214;2023-07-30T14:55:47;26.30;25.20
578;DHT22;275;48.492;9.214;2023-07-30T14:58:14;26.20;25.40
578;DHT22;275;48.492;9.214;2023-07-30T15:00:41;25.60;26.20
578;DHT22;275;48.492;9.214;2023-07-30T15:03:10;25.10;26.20
578;DHT22;275;48.492;9.214;2023-07-30T15:05:37;24.70;26.60
578;DHT22;275;48.492;9.214;2023-07-30T15:08:04;24.40;27.20
578;DHT22;275;48.492;9.214;2023-07-30T15:10:31;24.40;26.90
578;DHT22;275;48.492;9.214;2023-07-30T15:12:58;24.50;26.80
578;DHT22;275;48.492;9.214;2023-07-30T15:15:25;24.40;27.10
578;DHT22;275;48.492;9.214;2023-07-30T15:17:51;24.90;26.60
578;DHT22;275;48.492;9.214;2023-07-30T15:20:20;24.90;26.40
578;DHT22;275;48.492;9.214;2023-07-30T15:22:46;25.00;26.50
578;DHT22;275;48.492;9.214;2023-07-30T15:25:13;25.30;26.30
578;DHT22;275;48.492;9.214;2023-07-30T15:27:41;25.60;26.00
578;DHT22;275;48.492;9.214;2023-07-30T15:30:08;26.20;24.90
578;DHT22;275;48.492;9.214;2023-07-30T15:32:41;25.80;25.10
578;DHT22;275;48.492;9.214;2023-07-30T15:35:08;25.20;25.60
578;DHT22;275;48.492;9.214;2023-07-30T15:37:37;25.20;25.40
578;DHT22;275;48.492;9.214;2023-07-30T15:40:05;25.20;26.00
578;DHT22;275;48.492;9.214;2023-07-30T15:42:32;25.00;25.70
578;DHT22;275;48.492;9.214;2023-07-30T15:44:59;24.90;25.50
578;DHT22;275;48.492;9.214;2023-07-30T15:47:26;24.90;25.20
578;DHT22;275;48.492;9.214;2023-07-30T15:49:53;25.20;24.90
578;DHT22;275;48.492;9.214;2023-07-30T15:52:20;24.80;25.10
578;DHT22;275;48.492;9.214;2023-07-30T15:54:48;24.60;25.50
578;DHT22;275;48.492;9.214;2023-07-30T15:57:15;24.50;25.40
578;DHT22;275;48.492;9.214;2023-07-30T15:59:44;24.60;24.80
578;DHT22;275;48.492;9.214;2023-07-30T16:02:11;24.60;24.80
578;DHT22;275;48.492;9.214;2023-07-30T16:04:38;24.40;24.90
578;DHT22;275;48.492;9.214;2023-07-30T16:07:05;24.30;24.70
578;DHT22;275;48.492;9.214;2023-07-30T16:09:34;24.30;24.50
578;DHT22;275;48.492;9.214;2023-07-30T16:12:03;24.30;24.80
578;DHT22;275;48.492;9.214;2023-07-30T16:14:36;24.20;25.10
578;DHT22;275;48.492;9.214;2023-07-30T16:17:10;24.80;24.40
578;DHT22;275;48.492;9.214;2023-07-30T16:19:39;24.90;24.60
578;DHT22;275;48.492;9.214;2023-07-30T16:22:06;25.10;24.20
578;DHT22;275;48.492;9.214;2023-07-30T16:24:32;25.30;23.90
578;DHT22;275;48.492;9.214;2023-07-30T16:26:59;25.30;23.70
578;DHT22;275;48.492;9.214;2023-07-30T16:29:27;25.10;23.70
578;DHT22;275;48.492;9.214;2023-07-30T16:31:54;24.50;24.40
578;DHT22;275;48.492;9.214;2023-07-30T16:34:21;24.70;24.40
578;DHT22;275;48.492;9.214;2023-07-30T16:36:48;24.50;24.20